createdAt,value
2023-01-21T00:01:09.334Z,99844.79
2023-01-21T00:03:39.449Z,99843.94
2023-01-21T00:06:07.620Z,99836.98
2023-01-21T00:08:34.479Z,99832.13
2023-01-21T00:11:08.677Z,99826.98
2023-01-21T00:13:37.185Z,99833.66
2023-01-21T00:16:07.525Z,99840.79
2023-01-21T00:18:40.461Z,99843.14
2023-01-21T00:21:09.030Z,99845.27
2023-01-21T00:23:38.263Z,99845.59
2023-01-21T00:26:07.043Z,99850.04
2023-01-21T00:28:34.772Z,99841.18
2023-01-21T00:31:03.359Z,99842.70
2023-01-21T00:33:30.534Z,99842.05
2023-01-21T00:36:00.109Z,99840.57
2023-01-21T00:38:28.239Z,99836.11
2023-01-21T00:41:06.227Z,99833.48
2023-01-21T00:43:33.248Z,99832.45
2023-01-21T00:46:03.601Z,99833.89
2023-01-21T00:48:31.986Z,99839.63
2023-01-21T00:51:01.144Z,99836.66
2023-01-21T00:53:29.919Z,99835.20
2023-01-21T00:56:01.265Z,99840.45
2023-01-21T00:58:29.086Z,99845.70
2023-01-21T01:01:04.777Z,99847.59
2023-01-21T01:03:33.407Z,99851.25
2023-01-21T01:06:20.591Z,99850.16
2023-01-21T01:08:47.760Z,99854.41
2023-01-21T01:11:14.708Z,99853.42
2023-01-21T01:13:41.754Z,99855.95
2023-01-21T01:16:09.066Z,99858.42
2023-01-21T01:18:36.490Z,99854.83
2023-01-21T01:21:03.672Z,99853.70
2023-01-21T01:23:30.532Z,99847.52
2023-01-21T01:26:05.260Z,99844.58
2023-01-21T01:28:32.325Z,99838.84
2023-01-21T01:30:59.409Z,99832.45
2023-01-21T01:33:26.481Z,99827.23
2023-01-21T01:35:53.411Z,99821.27
2023-01-21T01:38:21.377Z,99822.04
2023-01-21T01:40:49.384Z,99817.17
2023-01-21T01:43:18.104Z,99816.18
2023-01-21T01:45:45.109Z,99816.20
2023-01-21T01:48:14.533Z,99823.25
2023-01-21T01:50:41.545Z,99823.67
2023-01-21T01:53:08.438Z,99817.91
2023-01-21T01:55:35.977Z,99821.73
2023-01-21T01:58:03.515Z,99810.17
2023-01-21T02:00:30.482Z,99815.61
2023-01-21T02:03:15.805Z,99822.61
2023-01-21T02:05:42.770Z,99822.59
2023-01-21T02:08:09.578Z,99819.23
2023-01-21T02:10:36.612Z,99821.92
2023-01-21T02:13:03.436Z,99819.80
2023-01-21T02:15:59.556Z,99822.49
2023-01-21T02:18:55.548Z,99818.85
2023-01-21T02:21:52.294Z,99820.30
2023-01-21T02:24:50.372Z,99815.34
2023-01-21T02:27:30.710Z,99812.86
2023-01-21T02:30:10.241Z,99811.00
2023-01-21T02:33:15.551Z,99811.13
2023-01-21T02:35:51.387Z,99811.20
2023-01-21T02:38:34.695Z,99814.34
2023-01-21T02:41:13.766Z,99812.91
2023-01-21T02:43:51.944Z,99818.98
2023-01-21T02:46:23.129Z,99827.55
2023-01-21T02:49:02.568Z,99829.17
2023-01-21T02:51:29.500Z,99830.55
2023-01-21T02:53:56.385Z,99832.33
2023-01-21T02:56:26.897Z,99844.05
2023-01-21T02:58:56.962Z,99855.36
2023-01-21T03:01:51.108Z,99854.03
2023-01-21T03:04:36.323Z,99859.95
2023-01-21T03:07:22.686Z,99859.59
2023-01-21T03:09:49.641Z,99864.58
2023-01-21T03:12:43.491Z,99865.02
2023-01-21T03:15:52.827Z,99858.69
2023-01-21T03:18:24.632Z,99852.30
2023-01-21T03:21:15.922Z,99857.20
2023-01-21T03:23:45.221Z,99857.32
2023-01-21T03:26:13.636Z,99849.49
2023-01-21T03:28:45.029Z,99852.31
2023-01-21T03:31:18.037Z,99846.97
2023-01-21T03:33:46.777Z,99853.31
2023-01-21T03:36:23.670Z,99845.52
2023-01-21T03:38:50.733Z,99838.45
2023-01-21T03:41:22.942Z,99834.15
2023-01-21T03:43:49.897Z,99851.87
2023-01-21T03:46:40.105Z,99858.13
2023-01-21T03:49:14.832Z,99842.51
2023-01-21T03:51:48.428Z,99835.23
2023-01-21T03:54:15.919Z,99829.55
2023-01-21T03:56:43.036Z,99826.79
2023-01-21T03:59:09.939Z,99840.77
2023-01-21T04:01:37.363Z,99855.42
2023-01-21T04:04:05.176Z,99847.11
2023-01-21T04:06:33.313Z,99820.92
2023-01-21T04:09:00.278Z,99830.90
2023-01-21T04:11:27.945Z,99838.59
2023-01-21T04:13:54.924Z,99828.65
2023-01-21T04:16:22.427Z,99827.19
2023-01-21T04:18:51.395Z,99844.98
2023-01-21T04:21:19.060Z,99843.51
2023-01-21T04:23:46.042Z,99838.52
2023-01-21T04:26:13.070Z,99836.04
2023-01-21T04:28:40.050Z,99846.84
2023-01-21T04:31:08.174Z,99852.80
2023-01-21T04:33:37.911Z,99857.55
2023-01-21T04:36:08.367Z,99854.66
2023-01-21T04:38:38.469Z,99865.59
2023-01-21T04:41:07.954Z,99861.60
2023-01-21T04:43:37.948Z,99858.38
2023-01-21T04:46:08.016Z,99858.08
2023-01-21T04:48:38.420Z,99857.61
2023-01-21T04:51:08.152Z,99865.21
2023-01-21T04:53:37.306Z,99877.17
2023-01-21T04:56:06.147Z,99874.73
2023-01-21T04:58:36.600Z,99875.27
2023-01-21T05:01:06.008Z,99874.79
2023-01-21T05:03:36.026Z,99871.21
2023-01-21T05:06:07.001Z,99872.64
2023-01-21T05:08:35.816Z,99877.30
2023-01-21T05:11:07.523Z,99879.27
2023-01-21T05:13:36.934Z,99889.06
2023-01-21T05:16:09.124Z,99875.91
2023-01-21T05:18:38.528Z,99881.08
2023-01-21T05:21:09.058Z,99881.67
2023-01-21T05:23:39.396Z,99881.67
2023-01-21T05:26:08.879Z,99884.29
2023-01-21T05:28:38.197Z,99880.42
2023-01-21T05:31:07.531Z,99876.98
2023-01-21T05:41:39.311Z,99880.79
2023-01-21T05:44:06.329Z,99877.45
2023-01-21T05:46:33.242Z,99884.05
2023-01-21T05:49:00.291Z,99873.10
2023-01-21T05:51:27.084Z,99872.92
2023-01-21T05:53:54.100Z,99872.02
2023-01-21T05:56:21.133Z,99873.29
2023-01-21T05:58:48.057Z,99874.04
2023-01-21T06:01:14.982Z,99876.63
2023-01-21T06:03:41.894Z,99882.22
2023-01-21T06:06:08.746Z,99889.48
2023-01-21T06:08:35.618Z,99885.77
2023-01-21T06:11:02.436Z,99875.25
2023-01-21T06:13:29.250Z,99883.46
2023-01-21T06:15:56.645Z,99884.21
2023-01-21T06:18:23.853Z,99881.13
2023-01-21T06:20:51.952Z,99874.20
2023-01-21T06:23:18.787Z,99877.95
2023-01-21T06:25:45.909Z,99885.47
2023-01-21T06:28:12.965Z,99882.51
2023-01-21T06:30:39.932Z,99891.05
2023-01-21T06:33:06.861Z,99892.65
2023-01-21T06:35:33.826Z,99887.76
2023-01-21T06:38:00.789Z,99891.37
2023-01-21T06:40:27.718Z,99891.77
2023-01-21T06:42:54.728Z,99889.23
2023-01-21T06:45:21.549Z,99890.45
2023-01-21T06:47:48.615Z,99875.93
2023-01-21T06:50:17.254Z,99883.14
2023-01-21T06:52:46.121Z,99884.46
2023-01-21T06:55:14.267Z,99888.73
2023-01-21T06:57:41.891Z,99892.60
2023-01-21T07:00:09.525Z,99897.05
2023-01-21T07:02:36.402Z,99898.77
2023-01-21T07:05:03.978Z,99899.16
2023-01-21T07:07:30.991Z,99905.94
2023-01-21T07:09:58.172Z,99899.23
2023-01-21T07:12:25.137Z,99895.12
2023-01-21T07:14:51.950Z,99892.54
2023-01-21T07:17:19.386Z,99895.16
2023-01-21T07:19:46.174Z,99903.89
2023-01-21T07:22:13.103Z,99904.39
2023-01-21T07:24:40.045Z,99913.38
2023-01-21T07:27:07.850Z,99918.32
2023-01-21T07:29:35.672Z,99925.25
2023-01-21T07:32:02.993Z,99927.95
2023-01-21T07:34:30.050Z,99937.19
2023-01-21T07:36:57.043Z,99945.37
2023-01-21T07:39:23.987Z,99958.82
2023-01-21T07:41:52.985Z,99958.92
2023-01-21T07:44:21.326Z,99956.65
2023-01-21T07:46:48.337Z,99947.20
2023-01-21T07:49:17.749Z,99948.86
2023-01-21T07:51:45.454Z,99956.66
2023-01-21T07:54:12.532Z,99962.66
2023-01-21T07:56:39.513Z,99969.77
2023-01-21T07:59:07.781Z,99965.89
2023-01-21T08:01:34.667Z,99970.59
2023-01-21T08:04:01.619Z,99971.27
2023-01-21T08:06:28.988Z,99974.73
2023-01-21T08:08:57.936Z,99977.33
2023-01-21T08:11:24.826Z,99978.15
2023-01-21T08:13:51.614Z,99981.19
2023-01-21T08:16:18.508Z,99992.52
2023-01-21T08:18:45.672Z,99991.80
2023-01-21T08:21:12.533Z,99992.74
2023-01-21T08:23:39.589Z,99998.11
2023-01-21T08:26:06.837Z,99998.27
2023-01-21T08:28:33.682Z,99998.73
2023-01-21T08:31:12.002Z,100003.09
2023-01-21T08:33:38.903Z,100009.71
2023-01-21T08:36:06.770Z,100011.41
2023-01-21T08:38:34.045Z,100006.14
2023-01-21T08:41:00.881Z,100012.19
2023-01-21T08:43:27.721Z,100015.94
2023-01-21T08:45:58.617Z,100014.45
2023-01-21T08:48:25.496Z,100024.44
2023-01-21T08:50:52.445Z,100027.89
2023-01-21T08:53:22.387Z,100035.14
2023-01-21T08:55:49.211Z,100040.13
2023-01-21T08:58:16.275Z,100037.33
2023-01-21T09:00:44.914Z,100038.82
2023-01-21T09:03:13.719Z,100036.64
2023-01-21T09:05:40.566Z,100038.64
2023-01-21T09:08:07.882Z,100041.02
2023-01-21T09:10:53.398Z,100040.81
2023-01-21T09:13:20.229Z,100041.05
2023-01-21T09:15:47.065Z,100040.45
2023-01-21T09:18:13.868Z,100032.23
2023-01-21T09:20:40.740Z,100028.45
2023-01-21T09:23:26.080Z,100036.41
2023-01-21T09:26:04.876Z,100038.63
2023-01-21T09:28:33.632Z,100047.91
2023-01-21T09:31:02.032Z,100045.77
2023-01-21T09:33:29.287Z,100050.60
2023-01-21T09:35:57.352Z,100045.58
2023-01-21T09:38:24.589Z,100042.38
2023-01-21T09:40:51.459Z,100038.40
2023-01-21T09:43:23.156Z,100040.27
2023-01-21T09:45:50.820Z,100031.75
2023-01-21T09:48:31.941Z,100037.10
2023-01-21T09:51:00.005Z,100043.27
2023-01-21T14:11:25.768Z,100237.21
2023-01-21T14:14:14.884Z,100245.98
2023-01-21T14:17:17.033Z,100248.77
2023-01-21T14:20:06.108Z,100250.09
2023-01-21T14:23:04.850Z,100261.28
2023-01-21T14:25:51.869Z,100269.81
2023-01-21T14:28:30.515Z,100275.40
2023-01-21T14:31:15.738Z,100285.44
2023-01-21T14:33:51.025Z,100287.89
2023-01-21T14:36:23.373Z,100292.17
2023-01-21T14:39:32.203Z,100296.26
2023-01-21T14:42:10.619Z,100296.76
2023-01-21T14:44:39.141Z,100300.88
2023-01-21T14:47:19.760Z,100308.80
2023-01-21T14:49:48.597Z,100314.13
2023-01-21T14:52:17.549Z,100316.86
2023-01-21T14:54:44.625Z,100324.17
2023-01-21T14:57:27.681Z,100317.50
2023-01-21T15:00:18.379Z,100314.80
2023-01-21T15:02:46.110Z,100315.65
2023-01-21T15:05:48.924Z,100312.67
2023-01-21T15:08:21.898Z,100319.56
2023-01-21T15:10:50.372Z,100319.23
2023-01-21T15:13:34.216Z,100322.79
2023-01-21T15:16:05.543Z,100324.51
2023-01-21T15:18:39.976Z,100328.88
2023-01-21T15:21:33.546Z,100331.16
2023-01-21T15:24:38.705Z,100331.90
2023-01-21T15:27:17.744Z,100334.04
2023-01-21T15:29:53.764Z,100342.09
2023-01-21T15:32:22.333Z,100346.13
2023-01-21T15:34:56.178Z,100348.23
2023-01-21T15:37:23.826Z,100350.80
2023-01-21T15:39:53.429Z,100357.02
2023-01-21T15:42:33.172Z,100364.14
2023-01-21T15:45:04.420Z,100368.58
2023-01-21T15:47:31.781Z,100365.21
2023-01-21T15:50:34.589Z,100368.55
2023-01-21T15:53:30.569Z,100377.11
2023-01-21T15:56:16.001Z,100375.72
2023-01-21T15:59:01.459Z,100378.59
2023-01-21T16:01:36.744Z,100384.55
2023-01-21T16:04:38.754Z,100383.56
2023-01-21T16:07:46.703Z,100384.27
2023-01-21T16:10:55.484Z,100388.16
2023-01-21T16:13:48.210Z,100398.59
2023-01-21T16:16:36.860Z,100399.99
2023-01-21T16:19:07.058Z,100404.13
2023-01-21T16:21:36.598Z,100402.88
2023-01-21T16:24:07.311Z,100406.52
2023-01-21T16:26:37.277Z,100405.83
2023-01-21T16:29:11.813Z,100408.80
2023-01-21T16:32:14.761Z,100412.72
2023-01-21T16:34:42.233Z,100420.02
2023-01-21T16:37:15.849Z,100430.80
2023-01-21T16:39:46.051Z,100430.59
2023-01-21T16:42:33.650Z,100429.53
2023-01-21T16:45:08.519Z,100433.10
2023-01-21T16:47:35.982Z,100438.66
2023-01-21T16:50:05.270Z,100445.06
2023-01-21T16:52:32.417Z,100447.00
2023-01-21T16:55:00.458Z,100445.45
2023-01-21T16:57:35.186Z,100449.78
2023-01-21T17:00:09.031Z,100451.08
2023-01-21T17:02:37.159Z,100452.00
2023-01-21T17:05:05.397Z,100454.43
2023-01-21T17:07:38.149Z,100459.92
2023-01-21T17:10:20.649Z,100461.53
2023-01-21T17:12:59.472Z,100461.71
2023-01-21T17:15:41.202Z,100464.48
2023-01-21T17:18:19.229Z,100463.96
2023-01-21T17:21:02.826Z,100468.59
2023-01-21T17:23:34.493Z,100474.39
2023-01-21T17:26:04.348Z,100478.05
2023-01-21T17:28:53.126Z,100481.09
2023-01-21T17:31:28.187Z,100481.48
2023-01-21T17:34:04.438Z,100486.34
2023-01-21T17:36:36.956Z,100488.15
2023-01-21T17:39:06.394Z,100491.77
2023-01-21T17:41:40.725Z,100490.88
2023-01-21T17:44:35.917Z,100495.32
2023-01-21T17:47:04.103Z,100505.89
2023-01-21T17:49:31.772Z,100513.34
2023-01-21T17:52:00.271Z,100515.14
2023-01-21T17:54:36.307Z,100518.70
2023-01-21T21:24:27.715Z,100728.77
2023-01-21T21:26:54.614Z,100727.55
2023-01-21T21:29:21.410Z,100733.11
2023-01-21T21:31:48.569Z,100734.14
2023-01-21T21:34:15.596Z,100735.89
2023-01-21T21:36:42.758Z,100734.33
2023-01-21T21:39:09.658Z,100738.27
2023-01-21T21:41:55.296Z,100736.90
2023-01-21T21:44:22.219Z,100741.38
2023-01-21T21:47:07.935Z,100743.30
2023-01-21T21:49:34.790Z,100751.48
2023-01-21T21:52:01.804Z,100754.06
2023-01-21T21:54:28.736Z,100752.77
2023-01-21T21:56:55.699Z,100751.70
2023-01-21T21:59:22.528Z,100756.63
2023-01-21T22:01:49.299Z,100756.42
2023-01-21T22:04:16.322Z,100760.48
2023-01-21T22:06:43.363Z,100765.55
2023-01-21T22:09:10.717Z,100765.71
2023-01-21T22:11:37.714Z,100768.93
2023-01-21T22:14:04.835Z,100766.42
2023-01-21T22:16:31.848Z,100768.29
2023-01-21T22:18:59.755Z,100767.86
2023-01-21T22:21:34.678Z,100772.91
2023-01-21T22:24:02.758Z,100778.91
2023-01-21T22:26:29.969Z,100781.17
2023-01-21T22:28:56.860Z,100784.64
2023-01-21T22:31:25.372Z,100794.78
2023-01-21T22:33:52.517Z,100793.55
2023-01-21T22:36:20.735Z,100791.89
2023-01-21T22:38:47.917Z,100794.86
2023-01-21T22:41:16.165Z,100795.54
2023-01-21T22:43:44.883Z,100795.00
2023-01-21T22:46:13.301Z,100795.45
2023-01-21T22:48:41.611Z,100791.27
2023-01-21T22:51:10.223Z,100788.54
2023-01-21T22:53:37.258Z,100789.83
2023-01-21T22:56:04.994Z,100790.45
2023-01-21T22:58:32.991Z,100788.86
2023-01-21T23:01:00.361Z,100793.30
2023-01-21T23:03:27.884Z,100797.39
2023-01-21T23:05:56.016Z,100805.20
2023-01-21T23:08:22.891Z,100809.16
2023-01-21T23:10:49.643Z,100811.44
2023-01-21T23:13:16.488Z,100809.17
2023-01-21T23:15:44.302Z,100810.95
2023-01-21T23:18:11.981Z,100817.17
2023-01-21T23:20:38.769Z,100823.09
2023-01-21T23:23:05.576Z,100829.52
2023-01-21T23:25:32.369Z,100831.63
2023-01-21T23:27:59.238Z,100838.17
2023-01-21T23:30:26.063Z,100839.98
2023-01-21T23:32:52.898Z,100843.48
2023-01-21T23:35:19.672Z,100842.36
2023-01-21T23:37:46.488Z,100845.71
2023-01-21T23:40:13.807Z,100850.27
2023-01-21T23:42:40.930Z,100850.79
2023-01-21T23:45:08.039Z,100855.44
2023-01-21T23:47:34.824Z,100859.85
2023-01-21T23:50:01.751Z,100865.02
2023-01-21T23:52:28.562Z,100866.90
2023-01-21T23:54:55.367Z,100863.35
2023-01-21T23:57:22.156Z,100866.75
2023-01-21T23:59:49.081Z,100870.18
